sensor_id;sensor_type;location;lat;lon;timestamp;P1;durP1;ratioP1;P2;durP2;ratioP2
27265;SDS011;14766;51.380;13.762;2023-04-25T00:00:19;4.20;;;2.95;;
27265;SDS011;14766;51.380;13.762;2023-04-25T00:02:46;6.05;;;2.70;;
27265;SDS011;14766;51.380;13.762;2023-04-25T00:05:14;2.97;;;2.60;;
27265;SDS011;14766;51.380;13.762;2023-04-25T00:07:42;5.30;;;3.30;;
27265;SDS011;14766;51.380;13.762;2023-04-25T00:10:09;3.08;;;2.78;;
27265;SDS011;14766;51.380;13.762;2023-04-25T00:12:38;4.07;;;2.83;;
27265;SDS011;14766;51.380;13.762;2023-04-25T00:15:05;4.55;;;3.13;;
27265;SDS011;14766;51.380;13.762;2023-04-25T00:17:33;4.18;;;3.03;;
27265;SDS011;14766;51.380;13.762;2023-04-25T00:20:01;4.55;;;3.20;;
27265;SDS011;14766;51.380;13.762;2023-04-25T00:22:32;4.30;;;2.90;;
27265;SDS011;14766;51.380;13.762;2023-04-25T00:25:02;3.35;;;2.70;;
27265;SDS011;14766;51.380;13.762;2023-04-25T00:27:33;5.53;;;3.47;;
27265;SDS011;14766;51.380;13.762;2023-04-25T00:30:00;4.32;;;2.78;;
27265;SDS011;14766;51.380;13.762;2023-04-25T00:32:27;3.30;;;2.65;;
27265;SDS011;14766;51.380;13.762;2023-04-25T00:34:54;3.80;;;2.85;;
27265;SDS011;14766;51.380;13.762;2023-04-25T00:37:24;3.40;;;2.88;;
27265;SDS011;14766;51.380;13.762;2023-04-25T00:39:51;4.40;;;2.72;;
27265;SDS011;14766;51.380;13.762;2023-04-25T00:42:20;4.55;;;2.85;;
27265;SDS011;14766;51.380;13.762;2023-04-25T00:44:47;4.85;;;2.97;;
27265;SDS011;14766;51.380;13.762;2023-04-25T00:47:15;5.20;;;3.53;;
27265;SDS011;14766;51.380;13.762;2023-04-25T00:49:43;3.72;;;2.97;;
27265;SDS011;14766;51.380;13.762;2023-04-25T00:52:11;5.00;;;3.25;;
27265;SDS011;14766;51.380;13.762;2023-04-25T00:54:39;4.43;;;2.78;;
27265;SDS011;14766;51.380;13.762;2023-04-25T00:57:06;3.78;;;2.85;;
27265;SDS011;14766;51.380;13.762;2023-04-25T00:59:33;3.47;;;3.00;;
27265;SDS011;14766;51.380;13.762;2023-04-25T01:02:00;4.55;;;3.00;;
27265;SDS011;14766;51.380;13.762;2023-04-25T01:04:28;4.63;;;3.17;;
27265;SDS011;14766;51.380;13.762;2023-04-25T01:06:55;4.55;;;3.00;;
27265;SDS011;14766;51.380;13.762;2023-04-25T01:09:23;5.20;;;3.47;;
27265;SDS011;14766;51.380;13.762;2023-04-25T01:11:53;4.65;;;3.05;;
27265;SDS011;14766;51.380;13.762;2023-04-25T01:14:21;4.63;;;3.00;;
27265;SDS011;14766;51.380;13.762;2023-04-25T01:16:48;3.83;;;2.90;;
27265;SDS011;14766;51.380;13.762;2023-04-25T01:19:16;4.15;;;3.38;;
27265;SDS011;14766;51.380;13.762;2023-04-25T01:21:45;6.00;;;3.33;;
27265;SDS011;14766;51.380;13.762;2023-04-25T01:24:13;5.10;;;3.13;;
27265;SDS011;14766;51.380;13.762;2023-04-25T01:26:41;4.30;;;3.25;;
27265;SDS011;14766;51.380;13.762;2023-04-25T01:29:20;3.60;;;3.28;;
27265;SDS011;14766;51.380;13.762;2023-04-25T01:31:48;4.10;;;3.25;;
27265;SDS011;14766;51.380;13.762;2023-04-25T01:34:17;4.20;;;3.15;;
27265;SDS011;14766;51.380;13.762;2023-04-25T01:36:44;4.90;;;3.00;;
27265;SDS011;14766;51.380;13.762;2023-04-25T01:39:13;5.43;;;3.10;;
27265;SDS011;14766;51.380;13.762;2023-04-25T01:41:43;4.97;;;2.97;;
27265;SDS011;14766;51.380;13.762;2023-04-25T01:44:12;3.85;;;2.92;;
27265;SDS011;14766;51.380;13.762;2023-04-25T01:46:40;7.05;;;3.58;;
27265;SDS011;14766;51.380;13.762;2023-04-25T01:49:08;3.50;;;3.10;;
27265;SDS011;14766;51.380;13.762;2023-04-25T01:51:35;4.90;;;3.20;;
27265;SDS011;14766;51.380;13.762;2023-04-25T01:54:02;4.07;;;3.00;;
27265;SDS011;14766;51.380;13.762;2023-04-25T01:56:31;3.38;;;2.60;;
27265;SDS011;14766;51.380;13.762;2023-04-25T01:58:59;4.13;;;3.42;;
27265;SDS011;14766;51.380;13.762;2023-04-25T02:02:02;4.75;;;3.33;;
27265;SDS011;14766;51.380;13.762;2023-04-25T02:04:32;5.13;;;3.15;;
27265;SDS011;14766;51.380;13.762;2023-04-25T02:07:00;4.30;;;3.10;;
27265;SDS011;14766;51.380;13.762;2023-04-25T02:09:36;5.30;;;3.53;;
27265;SDS011;14766;51.380;13.762;2023-04-25T02:12:05;5.88;;;3.30;;
27265;SDS011;14766;51.380;13.762;2023-04-25T02:14:47;3.53;;;2.95;;
27265;SDS011;14766;51.380;13.762;2023-04-25T02:17:19;7.63;;;3.80;;
27265;SDS011;14766;51.380;13.762;2023-04-25T02:19:49;4.60;;;3.15;;
27265;SDS011;14766;51.380;13.762;2023-04-25T02:22:16;7.22;;;3.60;;
27265;SDS011;14766;51.380;13.762;2023-04-25T02:24:45;5.72;;;3.47;;
27265;SDS011;14766;51.380;13.762;2023-04-25T02:27:13;4.40;;;3.20;;
27265;SDS011;14766;51.380;13.762;2023-04-25T02:29:40;5.20;;;3.78;;
27265;SDS011;14766;51.380;13.762;2023-04-25T02:32:10;6.63;;;4.60;;
27265;SDS011;14766;51.380;13.762;2023-04-25T02:34:37;5.28;;;3.97;;
27265;SDS011;14766;51.380;13.762;2023-04-25T02:37:04;5.03;;;4.07;;
27265;SDS011;14766;51.380;13.762;2023-04-25T02:39:32;4.60;;;3.58;;
27265;SDS011;14766;51.380;13.762;2023-04-25T02:41:59;5.05;;;3.72;;
27265;SDS011;14766;51.380;13.762;2023-04-25T02:44:28;4.95;;;3.60;;
27265;SDS011;14766;51.380;13.762;2023-04-25T02:46:55;4.85;;;3.35;;
27265;SDS011;14766;51.380;13.762;2023-04-25T02:49:22;4.07;;;3.35;;
27265;SDS011;14766;51.380;13.762;2023-04-25T02:51:51;4.82;;;3.75;;
27265;SDS011;14766;51.380;13.762;2023-04-25T02:54:18;5.18;;;3.58;;
27265;SDS011;14766;51.380;13.762;2023-04-25T02:56:47;5.90;;;3.50;;
27265;SDS011;14766;51.380;13.762;2023-04-25T02:59:20;4.30;;;3.45;;
27265;SDS011;14766;51.380;13.762;2023-04-25T03:01:48;4.57;;;3.80;;
27265;SDS011;14766;51.380;13.762;2023-04-25T03:04:17;4.32;;;3.05;;
27265;SDS011;14766;51.380;13.762;2023-04-25T03:06:46;5.50;;;3.70;;
27265;SDS011;14766;51.380;13.762;2023-04-25T03:09:13;3.50;;;3.08;;
27265;SDS011;14766;51.380;13.762;2023-04-25T03:11:41;6.55;;;3.97;;
27265;SDS011;14766;51.380;13.762;2023-04-25T03:14:08;7.40;;;4.15;;
27265;SDS011;14766;51.380;13.762;2023-04-25T03:16:36;5.53;;;3.72;;
27265;SDS011;14766;51.380;13.762;2023-04-25T03:19:04;4.82;;;3.83;;
27265;SDS011;14766;51.380;13.762;2023-04-25T03:21:32;4.50;;;3.10;;
27265;SDS011;14766;51.380;13.762;2023-04-25T03:24:02;6.03;;;3.72;;
27265;SDS011;14766;51.380;13.762;2023-04-25T03:26:31;6.40;;;3.90;;
27265;SDS011;14766;51.380;13.762;2023-04-25T03:28:58;7.75;;;4.80;;
27265;SDS011;14766;51.380;13.762;2023-04-25T03:31:26;8.73;;;4.75;;
27265;SDS011;14766;51.380;13.762;2023-04-25T03:33:53;6.65;;;4.82;;
27265;SDS011;14766;51.380;13.762;2023-04-25T03:36:22;8.00;;;4.22;;
27265;SDS011;14766;51.380;13.762;2023-04-25T03:38:49;7.75;;;4.28;;
27265;SDS011;14766;51.380;13.762;2023-04-25T03:41:19;6.78;;;4.32;;
27265;SDS011;14766;51.380;13.762;2023-04-25T03:43:53;6.22;;;3.85;;
27265;SDS011;14766;51.380;13.762;2023-04-25T03:46:21;5.15;;;3.70;;
27265;SDS011;14766;51.380;13.762;2023-04-25T03:48:48;6.20;;;3.60;;
27265;SDS011;14766;51.380;13.762;2023-04-25T03:51:21;5.30;;;4.05;;
27265;SDS011;14766;51.380;13.762;2023-04-25T03:53:48;6.68;;;3.92;;
27265;SDS011;14766;51.380;13.762;2023-04-25T03:56:19;4.93;;;3.55;;
27265;SDS011;14766;51.380;13.762;2023-04-25T03:58:55;6.03;;;3.70;;
27265;SDS011;14766;51.380;13.762;2023-04-25T04:01:24;7.32;;;3.72;;
27265;SDS011;14766;51.380;13.762;2023-04-25T04:03:51;5.43;;;3.58;;
27265;SDS011;14766;51.380;13.762;2023-04-25T04:06:19;5.38;;;3.65;;
27265;SDS011;14766;51.380;13.762;2023-04-25T04:08:53;6.57;;;3.78;;
27265;SDS011;14766;51.380;13.762;2023-04-25T04:11:22;7.15;;;3.65;;
27265;SDS011;14766;51.380;13.762;2023-04-25T04:13:49;5.55;;;3.50;;
27265;SDS011;14766;51.380;13.762;2023-04-25T04:16:17;4.38;;;3.20;;
27265;SDS011;14766;51.380;13.762;2023-04-25T04:18:45;5.43;;;3.88;;
27265;SDS011;14766;51.380;13.762;2023-04-25T04:21:12;5.78;;;4.10;;
27265;SDS011;14766;51.380;13.762;2023-04-25T04:23:40;7.30;;;3.40;;
27265;SDS011;14766;51.380;13.762;2023-04-25T04:26:09;5.28;;;3.30;;
27265;SDS011;14766;51.380;13.762;2023-04-25T04:28:45;9.52;;;4.35;;
27265;SDS011;14766;51.380;13.762;2023-04-25T04:31:22;6.15;;;4.20;;
27265;SDS011;14766;51.380;13.762;2023-04-25T04:33:50;8.43;;;4.68;;
27265;SDS011;14766;51.380;13.762;2023-04-25T04:36:19;6.47;;;4.05;;
27265;SDS011;14766;51.380;13.762;2023-04-25T04:38:50;5.82;;;3.55;;
27265;SDS011;14766;51.380;13.762;2023-04-25T04:41:28;5.53;;;3.28;;
27265;SDS011;14766;51.380;13.762;2023-04-25T04:44:09;5.57;;;3.55;;
27265;SDS011;14766;51.380;13.762;2023-04-25T04:46:56;5.60;;;3.35;;
27265;SDS011;14766;51.380;13.762;2023-04-25T04:49:41;4.53;;;2.87;;
27265;SDS011;14766;51.380;13.762;2023-04-25T04:55:03;5.50;;;3.65;;
27265;SDS011;14766;51.380;13.762;2023-04-25T04:58:04;7.60;;;3.95;;
27265;SDS011;14766;51.380;13.762;2023-04-25T05:00:51;5.88;;;4.13;;
27265;SDS011;14766;51.380;13.762;2023-04-25T05:03:31;6.28;;;3.75;;
27265;SDS011;14766;51.380;13.762;2023-04-25T05:06:18;7.80;;;4.32;;
27265;SDS011;14766;51.380;13.762;2023-04-25T05:09:11;5.20;;;3.53;;
27265;SDS011;14766;51.380;13.762;2023-04-25T05:12:13;7.35;;;4.18;;
27265;SDS011;14766;51.380;13.762;2023-04-25T05:14:56;7.97;;;3.78;;
27265;SDS011;14766;51.380;13.762;2023-04-25T05:17:42;7.88;;;3.58;;
27265;SDS011;14766;51.380;13.762;2023-04-25T05:20:39;8.70;;;4.35;;
27265;SDS011;14766;51.380;13.762;2023-04-25T05:23:33;6.97;;;3.72;;
27265;SDS011;14766;51.380;13.762;2023-04-25T05:26:29;8.13;;;3.80;;
27265;SDS011;14766;51.380;13.762;2023-04-25T05:29:20;6.00;;;3.58;;
27265;SDS011;14766;51.380;13.762;2023-04-25T05:32:02;6.85;;;3.63;;
27265;SDS011;14766;51.380;13.762;2023-04-25T05:34:29;6.43;;;3.55;;
27265;SDS011;14766;51.380;13.762;2023-04-25T05:37:01;5.80;;;3.60;;
27265;SDS011;14766;51.380;13.762;2023-04-25T05:39:29;7.13;;;3.60;;
27265;SDS011;14766;51.380;13.762;2023-04-25T05:42:20;6.95;;;3.67;;
27265;SDS011;14766;51.380;13.762;2023-04-25T05:44:47;9.32;;;3.80;;
27265;SDS011;14766;51.380;13.762;2023-04-25T05:47:32;8.95;;;3.95;;
27265;SDS011;14766;51.380;13.762;2023-04-25T05:50:20;8.07;;;3.72;;
27265;SDS011;14766;51.380;13.762;2023-04-25T05:52:54;7.60;;;3.67;;
27265;SDS011;14766;51.380;13.762;2023-04-25T05:55:41;6.40;;;3.42;;
27265;SDS011;14766;51.380;13.762;2023-04-25T05:58:20;6.70;;;3.58;;
27265;SDS011;14766;51.380;13.762;2023-04-25T06:00:47;8.25;;;4.00;;
27265;SDS011;14766;51.380;13.762;2023-04-25T06:03:15;8.23;;;4.35;;
27265;SDS011;14766;51.380;13.762;2023-04-25T06:05:46;7.05;;;3.42;;
27265;SDS011;14766;51.380;13.762;2023-04-25T06:08:14;7.95;;;4.03;;
27265;SDS011;14766;51.380;13.762;2023-04-25T06:10:42;7.43;;;4.05;;
27265;SDS011;14766;51.380;13.762;2023-04-25T06:13:13;6.45;;;3.60;;
27265;SDS011;14766;51.380;13.762;2023-04-25T06:15:40;5.57;;;3.33;;
27265;SDS011;14766;51.380;13.762;2023-04-25T06:18:07;6.10;;;3.35;;
27265;SDS011;14766;51.380;13.762;2023-04-25T06:20:34;5.35;;;2.85;;
27265;SDS011;14766;51.380;13.762;2023-04-25T06:23:01;6.53;;;3.20;;
27265;SDS011;14766;51.380;13.762;2023-04-25T06:25:39;9.63;;;4.18;;
27265;SDS011;14766;51.380;13.762;2023-04-25T06:28:07;6.57;;;3.30;;
27265;SDS011;14766;51.380;13.762;2023-04-25T06:30:36;6.75;;;3.40;;
27265;SDS011;14766;51.380;13.762;2023-04-25T06:33:07;6.70;;;3.38;;
27265;SDS011;14766;51.380;13.762;2023-04-25T06:35:38;7.68;;;3.80;;
27265;SDS011;14766;51.380;13.762;2023-04-25T06:38:08;8.27;;;3.88;;
27265;SDS011;14766;51.380;13.762;2023-04-25T06:40:37;9.13;;;4.45;;
27265;SDS011;14766;51.380;13.762;2023-04-25T06:43:06;8.90;;;4.65;;
27265;SDS011;14766;51.380;13.762;2023-04-25T06:45:46;8.52;;;4.13;;
27265;SDS011;14766;51.380;13.762;2023-04-25T06:48:14;6.47;;;3.25;;
27265;SDS011;14766;51.380;13.762;2023-04-25T06:50:42;4.38;;;2.83;;
27265;SDS011;14766;51.380;13.762;2023-04-25T06:53:10;5.75;;;2.83;;
27265;SDS011;14766;51.380;13.762;2023-04-25T06:55:39;5.20;;;2.70;;
27265;SDS011;14766;51.380;13.762;2023-04-25T06:58:12;6.97;;;2.38;;
27265;SDS011;14766;51.380;13.762;2023-04-25T07:00:48;5.47;;;2.60;;
27265;SDS011;14766;51.380;13.762;2023-04-25T07:03:17;3.60;;;2.35;;
27265;SDS011;14766;51.380;13.762;2023-04-25T07:05:45;4.32;;;2.20;;
27265;SDS011;14766;51.380;13.762;2023-04-25T07:08:13;5.07;;;2.72;;
27265;SDS011;14766;51.380;13.762;2023-04-25T07:10:40;5.25;;;2.22;;
27265;SDS011;14766;51.380;13.762;2023-04-25T07:13:07;4.63;;;2.47;;
27265;SDS011;14766;51.380;13.762;2023-04-25T07:15:35;4.78;;;2.20;;
27265;SDS011;14766;51.380;13.762;2023-04-25T07:18:02;3.75;;;2.10;;
27265;SDS011;14766;51.380;13.762;2023-04-25T07:20:31;5.20;;;2.70;;
27265;SDS011;14766;51.380;13.762;2023-04-25T07:23:00;5.38;;;2.20;;
27265;SDS011;14766;51.380;13.762;2023-04-25T07:25:29;5.15;;;2.42;;
27265;SDS011;14766;51.380;13.762;2023-04-25T07:27:57;4.88;;;2.38;;
27265;SDS011;14766;51.380;13.762;2023-04-25T07:30:25;4.05;;;2.08;;
27265;SDS011;14766;51.380;13.762;2023-04-25T07:32:53;5.18;;;2.53;;
27265;SDS011;14766;51.380;13.762;2023-04-25T07:35:20;5.60;;;2.78;;
27265;SDS011;14766;51.380;13.762;2023-04-25T07:37:48;4.47;;;2.50;;
27265;SDS011;14766;51.380;13.762;2023-04-25T07:40:18;5.63;;;2.50;;
27265;SDS011;14766;51.380;13.762;2023-04-25T07:42:49;4.70;;;2.92;;
27265;SDS011;14766;51.380;13.762;2023-04-25T07:45:22;3.17;;;2.17;;
27265;SDS011;14766;51.380;13.762;2023-04-25T07:47:51;3.05;;;1.85;;
27265;SDS011;14766;51.380;13.762;2023-04-25T07:50:20;4.90;;;2.05;;
27265;SDS011;14766;51.380;13.762;2023-04-25T07:52:48;5.68;;;2.03;;
27265;SDS011;14766;51.380;13.762;2023-04-25T07:55:25;5.30;;;1.95;;
27265;SDS011;14766;51.380;13.762;2023-04-25T08:00:30;5.40;;;1.98;;
27265;SDS011;14766;51.380;13.762;2023-04-25T08:03:17;5.10;;;2.70;;
27265;SDS011;14766;51.380;13.762;2023-04-25T08:05:45;5.53;;;2.70;;
27265;SDS011;14766;51.380;13.762;2023-04-25T08:08:13;4.97;;;2.63;;
27265;SDS011;14766;51.380;13.762;2023-04-25T08:10:42;5.72;;;2.50;;
27265;SDS011;14766;51.380;13.762;2023-04-25T08:13:09;5.93;;;2.67;;
27265;SDS011;14766;51.380;13.762;2023-04-25T08:15:39;4.10;;;2.25;;
27265;SDS011;14766;51.380;13.762;2023-04-25T08:18:06;5.88;;;2.53;;
27265;SDS011;14766;51.380;13.762;2023-04-25T08:20:34;6.82;;;2.80;;
27265;SDS011;14766;51.380;13.762;2023-04-25T08:23:04;5.07;;;2.50;;
27265;SDS011;14766;51.380;13.762;2023-04-25T08:25:43;4.00;;;1.75;;
27265;SDS011;14766;51.380;13.762;2023-04-25T08:28:14;3.42;;;1.88;;
27265;SDS011;14766;51.380;13.762;2023-04-25T08:30:43;3.72;;;1.83;;
27265;SDS011;14766;51.380;13.762;2023-04-25T08:33:12;3.92;;;2.35;;
27265;SDS011;14766;51.380;13.762;2023-04-25T08:35:58;4.10;;;1.92;;
27265;SDS011;14766;51.380;13.762;2023-04-25T08:38:26;6.70;;;2.47;;
27265;SDS011;14766;51.380;13.762;2023-04-25T08:40:53;4.57;;;2.33;;
27265;SDS011;14766;51.380;13.762;2023-04-25T08:43:22;4.95;;;2.33;;
27265;SDS011;14766;51.380;13.762;2023-04-25T08:45:51;3.75;;;2.42;;
27265;SDS011;14766;51.380;13.762;2023-04-25T08:48:32;6.60;;;2.40;;
27265;SDS011;14766;51.380;13.762;2023-04-25T08:51:03;4.55;;;2.42;;
27265;SDS011;14766;51.380;13.762;2023-04-25T08:53:33;6.18;;;3.00;;
27265;SDS011;14766;51.380;13.762;2023-04-25T08:56:03;5.28;;;2.28;;
27265;SDS011;14766;51.380;13.762;2023-04-25T08:58:34;4.07;;;2.00;;
27265;SDS011;14766;51.380;13.762;2023-04-25T09:01:02;4.70;;;1.80;;
27265;SDS011;14766;51.380;13.762;2023-04-25T09:03:37;3.33;;;1.67;;
27265;SDS011;14766;51.380;13.762;2023-04-25T09:06:04;4.78;;;1.60;;
27265;SDS011;14766;51.380;13.762;2023-04-25T09:08:33;1.90;;;1.70;;
27265;SDS011;14766;51.380;13.762;2023-04-25T09:11:00;3.28;;;1.40;;
27265;SDS011;14766;51.380;13.762;2023-04-25T09:13:28;2.53;;;1.55;;
27265;SDS011;14766;51.380;13.762;2023-04-25T09:16:17;3.28;;;1.95;;
27265;SDS011;14766;51.380;13.762;2023-04-25T09:19:06;2.13;;;1.40;;
27265;SDS011;14766;51.380;13.762;2023-04-25T09:21:34;5.00;;;2.20;;
27265;SDS011;14766;51.380;13.762;2023-04-25T09:24:03;2.28;;;1.80;;
27265;SDS011;14766;51.380;13.762;2023-04-25T09:26:31;3.65;;;2.15;;
27265;SDS011;14766;51.380;13.762;2023-04-25T09:29:06;3.60;;;2.28;;
27265;SDS011;14766;51.380;13.762;2023-04-25T09:31:39;4.25;;;2.15;;
27265;SDS011;14766;51.380;13.762;2023-04-25T09:34:08;6.10;;;3.00;;
27265;SDS011;14766;51.380;13.762;2023-04-25T09:36:48;3.92;;;2.60;;
27265;SDS011;14766;51.380;13.762;2023-04-25T09:39:42;3.78;;;2.45;;
27265;SDS011;14766;51.380;13.762;2023-04-25T09:42:14;3.70;;;2.30;;
27265;SDS011;14766;51.380;13.762;2023-04-25T09:44:46;2.80;;;2.00;;
27265;SDS011;14766;51.380;13.762;2023-04-25T09:47:14;2.85;;;1.77;;
27265;SDS011;14766;51.380;13.762;2023-04-25T09:49:43;2.22;;;1.70;;
27265;SDS011;14766;51.380;13.762;2023-04-25T09:52:15;4.70;;;2.42;;
27265;SDS011;14766;51.380;13.762;2023-04-25T09:54:56;2.53;;;2.10;;
27265;SDS011;14766;51.380;13.762;2023-04-25T09:57:31;5.93;;;2.40;;
27265;SDS011;14766;51.380;13.762;2023-04-25T10:00:00;7.43;;;2.47;;
27265;SDS011;14766;51.380;13.762;2023-04-25T10:02:39;4.50;;;2.33;;
27265;SDS011;14766;51.380;13.762;2023-04-25T10:05:16;2.97;;;2.00;;
27265;SDS011;14766;51.380;13.762;2023-04-25T10:07:44;3.38;;;2.42;;
27265;SDS011;14766;51.380;13.762;2023-04-25T10:10:15;4.55;;;2.13;;
27265;SDS011;14766;51.380;13.762;2023-04-25T10:12:43;2.92;;;2.08;;
27265;SDS011;14766;51.380;13.762;2023-04-25T10:15:11;3.65;;;2.00;;
27265;SDS011;14766;51.380;13.762;2023-04-25T10:17:40;3.72;;;2.38;;
27265;SDS011;14766;51.380;13.762;2023-04-25T10:20:10;3.75;;;2.22;;
27265;SDS011;14766;51.380;13.762;2023-04-25T10:22:38;4.03;;;2.22;;
27265;SDS011;14766;51.380;13.762;2023-04-25T10:25:09;4.25;;;2.65;;
27265;SDS011;14766;51.380;13.762;2023-04-25T10:27:38;3.15;;;2.50;;
27265;SDS011;14766;51.380;13.762;2023-04-25T10:32:38;3.53;;;2.50;;
27265;SDS011;14766;51.380;13.762;2023-04-25T10:35:11;4.28;;;2.85;;
27265;SDS011;14766;51.380;13.762;2023-04-25T10:37:56;5.35;;;3.20;;
27265;SDS011;14766;51.380;13.762;2023-04-25T10:40:23;5.25;;;2.80;;
27265;SDS011;14766;51.380;13.762;2023-04-25T10:42:54;4.68;;;3.38;;
27265;SDS011;14766;51.380;13.762;2023-04-25T10:45:22;5.38;;;3.88;;
27265;SDS011;14766;51.380;13.762;2023-04-25T10:47:49;4.75;;;3.40;;
27265;SDS011;14766;51.380;13.762;2023-04-25T10:50:17;4.13;;;2.72;;
27265;SDS011;14766;51.380;13.762;2023-04-25T10:52:46;4.43;;;2.67;;
27265;SDS011;14766;51.380;13.762;2023-04-25T10:55:13;3.88;;;2.20;;
27265;SDS011;14766;51.380;13.762;2023-04-25T10:57:40;5.32;;;2.70;;
27265;SDS011;14766;51.380;13.762;2023-04-25T11:00:17;5.18;;;3.30;;
27265;SDS011;14766;51.380;13.762;2023-04-25T11:02:51;7.50;;;3.88;;
27265;SDS011;14766;51.380;13.762;2023-04-25T11:07:59;6.05;;;2.60;;
27265;SDS011;14766;51.380;13.762;2023-04-25T11:10:33;4.07;;;2.65;;
27265;SDS011;14766;51.380;13.762;2023-04-25T11:13:04;7.60;;;2.90;;
27265;SDS011;14766;51.380;13.762;2023-04-25T11:15:31;7.45;;;3.50;;
27265;SDS011;14766;51.380;13.762;2023-04-25T11:17:58;6.40;;;2.22;;
27265;SDS011;14766;51.380;13.762;2023-04-25T11:20:26;5.10;;;2.63;;
27265;SDS011;14766;51.380;13.762;2023-04-25T11:22:57;7.45;;;3.15;;
27265;SDS011;14766;51.380;13.762;2023-04-25T11:25:26;5.30;;;2.50;;
27265;SDS011;14766;51.380;13.762;2023-04-25T11:27:55;7.70;;;2.85;;
27265;SDS011;14766;51.380;13.762;2023-04-25T11:30:25;5.95;;;2.78;;
27265;SDS011;14766;51.380;13.762;2023-04-25T11:32:53;5.28;;;2.20;;
27265;SDS011;14766;51.380;13.762;2023-04-25T11:35:20;6.60;;;2.30;;
27265;SDS011;14766;51.380;13.762;2023-04-25T11:37:49;5.10;;;2.33;;
27265;SDS011;14766;51.380;13.762;2023-04-25T11:40:17;8.13;;;2.65;;
27265;SDS011;14766;51.380;13.762;2023-04-25T11:42:45;12.18;;;6.07;;
27265;SDS011;14766;51.380;13.762;2023-04-25T11:45:14;10.65;;;6.25;;
27265;SDS011;14766;51.380;13.762;2023-04-25T11:47:41;7.68;;;3.30;;
27265;SDS011;14766;51.380;13.762;2023-04-25T11:50:09;7.07;;;3.13;;
27265;SDS011;14766;51.380;13.762;2023-04-25T11:52:37;8.13;;;2.58;;
27265;SDS011;14766;51.380;13.762;2023-04-25T11:55:06;5.45;;;2.15;;
27265;SDS011;14766;51.380;13.762;2023-04-25T11:57:39;6.93;;;2.67;;
27265;SDS011;14766;51.380;13.762;2023-04-25T12:02:43;6.82;;;2.92;;
27265;SDS011;14766;51.380;13.762;2023-04-25T12:05:12;6.38;;;4.10;;
27265;SDS011;14766;51.380;13.762;2023-04-25T12:10:15;8.43;;;3.28;;
27265;SDS011;14766;51.380;13.762;2023-04-25T12:12:44;9.07;;;5.40;;
27265;SDS011;14766;51.380;13.762;2023-04-25T12:17:49;14.50;;;7.82;;
27265;SDS011;14766;51.380;13.762;2023-04-25T12:20:19;8.95;;;3.75;;
27265;SDS011;14766;51.380;13.762;2023-04-25T12:22:50;6.80;;;2.47;;
27265;SDS011;14766;51.380;13.762;2023-04-25T12:25:36;7.70;;;2.20;;
27265;SDS011;14766;51.380;13.762;2023-04-25T12:28:18;8.20;;;2.33;;
27265;SDS011;14766;51.380;13.762;2023-04-25T12:30:54;8.65;;;3.15;;
27265;SDS011;14766;51.380;13.762;2023-04-25T12:33:22;8.25;;;3.13;;
27265;SDS011;14766;51.380;13.762;2023-04-25T12:35:49;8.10;;;2.63;;
27265;SDS011;14766;51.380;13.762;2023-04-25T12:40:57;7.85;;;2.88;;
27265;SDS011;14766;51.380;13.762;2023-04-25T12:43:24;8.82;;;3.03;;
27265;SDS011;14766;51.380;13.762;2023-04-25T12:45:52;8.02;;;3.05;;
27265;SDS011;14766;51.380;13.762;2023-04-25T12:48:20;5.55;;;2.63;;
27265;SDS011;14766;51.380;13.762;2023-04-25T12:50:48;6.82;;;2.63;;
27265;SDS011;14766;51.380;13.762;2023-04-25T12:53:20;11.30;;;3.83;;
27265;SDS011;14766;51.380;13.762;2023-04-25T12:55:48;8.60;;;2.80;;
27265;SDS011;14766;51.380;13.762;2023-04-25T12:58:18;7.22;;;2.88;;
27265;SDS011;14766;51.380;13.762;2023-04-25T13:00:46;10.23;;;3.47;;
27265;SDS011;14766;51.380;13.762;2023-04-25T13:03:15;7.57;;;2.60;;
27265;SDS011;14766;51.380;13.762;2023-04-25T13:05:43;8.35;;;2.67;;
27265;SDS011;14766;51.380;13.762;2023-04-25T13:08:10;7.82;;;2.58;;
27265;SDS011;14766;51.380;13.762;2023-04-25T13:10:37;7.03;;;2.50;;
27265;SDS011;14766;51.380;13.762;2023-04-25T13:13:05;10.68;;;2.83;;
27265;SDS011;14766;51.380;13.762;2023-04-25T13:15:33;9.65;;;2.70;;
27265;SDS011;14766;51.380;13.762;2023-04-25T13:18:00;8.80;;;2.95;;
27265;SDS011;14766;51.380;13.762;2023-04-25T13:20:27;8.32;;;2.38;;
27265;SDS011;14766;51.380;13.762;2023-04-25T13:22:56;7.60;;;2.85;;
27265;SDS011;14766;51.380;13.762;2023-04-25T13:25:25;6.50;;;2.40;;
27265;SDS011;14766;51.380;13.762;2023-04-25T13:27:52;10.23;;;3.03;;
27265;SDS011;14766;51.380;13.762;2023-04-25T13:30:20;6.78;;;2.47;;
27265;SDS011;14766;51.380;13.762;2023-04-25T13:32:47;8.07;;;2.72;;
27265;SDS011;14766;51.380;13.762;2023-04-25T13:35:16;10.40;;;3.80;;
27265;SDS011;14766;51.380;13.762;2023-04-25T13:37:45;9.23;;;3.13;;
27265;SDS011;14766;51.380;13.762;2023-04-25T13:40:12;6.88;;;2.88;;
27265;SDS011;14766;51.380;13.762;2023-04-25T13:42:39;8.13;;;3.05;;
27265;SDS011;14766;51.380;13.762;2023-04-25T13:45:09;10.20;;;3.20;;
27265;SDS011;14766;51.380;13.762;2023-04-25T13:47:36;6.78;;;2.83;;
27265;SDS011;14766;51.380;13.762;2023-04-25T13:50:05;6.68;;;2.50;;
27265;SDS011;14766;51.380;13.762;2023-04-25T13:52:33;8.55;;;3.28;;
27265;SDS011;14766;51.380;13.762;2023-04-25T13:55:00;7.63;;;3.20;;
27265;SDS011;14766;51.380;13.762;2023-04-25T13:57:33;8.20;;;3.92;;
27265;SDS011;14766;51.380;13.762;2023-04-25T14:00:03;8.60;;;2.70;;
27265;SDS011;14766;51.380;13.762;2023-04-25T14:02:35;7.57;;;4.82;;
27265;SDS011;14766;51.380;13.762;2023-04-25T14:05:03;11.85;;;4.75;;
27265;SDS011;14766;51.380;13.762;2023-04-25T14:07:34;10.23;;;3.20;;
27265;SDS011;14766;51.380;13.762;2023-04-25T14:10:01;8.38;;;2.88;;
27265;SDS011;14766;51.380;13.762;2023-04-25T14:12:29;5.82;;;2.72;;
27265;SDS011;14766;51.380;13.762;2023-04-25T14:14:56;6.18;;;2.83;;
27265;SDS011;14766;51.380;13.762;2023-04-25T14:17:23;6.50;;;2.60;;
27265;SDS011;14766;51.380;13.762;2023-04-25T14:19:51;6.88;;;3.10;;
27265;SDS011;14766;51.380;13.762;2023-04-25T14:22:20;6.90;;;3.05;;
27265;SDS011;14766;51.380;13.762;2023-04-25T14:24:47;7.75;;;3.05;;
27265;SDS011;14766;51.380;13.762;2023-04-25T14:27:14;8.50;;;2.75;;
27265;SDS011;14766;51.380;13.762;2023-04-25T14:29:42;7.35;;;3.08;;
27265;SDS011;14766;51.380;13.762;2023-04-25T14:32:09;5.68;;;2.20;;
27265;SDS011;14766;51.380;13.762;2023-04-25T14:34:40;5.25;;;2.40;;
27265;SDS011;14766;51.380;13.762;2023-04-25T14:37:07;5.82;;;2.83;;
27265;SDS011;14766;51.380;13.762;2023-04-25T14:39:34;9.43;;;3.58;;
27265;SDS011;14766;51.380;13.762;2023-04-25T14:42:01;8.15;;;3.22;;
27265;SDS011;14766;51.380;13.762;2023-04-25T14:44:29;7.75;;;2.90;;
27265;SDS011;14766;51.380;13.762;2023-04-25T14:46:57;7.30;;;2.50;;
27265;SDS011;14766;51.380;13.762;2023-04-25T14:49:26;5.22;;;2.60;;
27265;SDS011;14766;51.380;13.762;2023-04-25T14:51:54;7.68;;;2.60;;
27265;SDS011;14766;51.380;13.762;2023-04-25T14:54:21;5.10;;;2.13;;
27265;SDS011;14766;51.380;13.762;2023-04-25T14:56:48;6.57;;;2.42;;
27265;SDS011;14766;51.380;13.762;2023-04-25T14:59:18;6.85;;;1.92;;
27265;SDS011;14766;51.380;13.762;2023-04-25T15:01:48;6.03;;;2.15;;
27265;SDS011;14766;51.380;13.762;2023-04-25T15:04:16;4.03;;;2.10;;
27265;SDS011;14766;51.380;13.762;2023-04-25T15:06:44;7.25;;;2.63;;
27265;SDS011;14766;51.380;13.762;2023-04-25T15:09:11;5.47;;;1.70;;
27265;SDS011;14766;51.380;13.762;2023-04-25T15:11:38;6.70;;;2.22;;
27265;SDS011;14766;51.380;13.762;2023-04-25T15:14:05;7.03;;;2.53;;